sensor_id;sensor_type;location;lat;lon;timestamp;P1;durP1;ratioP1;P2;durP2;ratioP2
73733;SDS011;62039;50.000;9.064;2022-07-23T00:00:11;3.97;;;2.97;;
73733;SDS011;62039;50.000;9.064;2022-07-23T00:02:38;2.73;;;2.50;;
73733;SDS011;62039;50.000;9.064;2022-07-23T00:05:05;3.30;;;3.00;;
73733;SDS011;62039;50.000;9.064;2022-07-23T00:07:33;3.47;;;3.17;;
73733;SDS011;62039;50.000;9.064;2022-07-23T00:10:00;3.10;;;2.90;;
73733;SDS011;62039;50.000;9.064;2022-07-23T00:12:26;2.70;;;2.50;;
73733;SDS011;62039;50.000;9.064;2022-07-23T00:14:54;3.00;;;2.50;;
73733;SDS011;62039;50.000;9.064;2022-07-23T00:17:21;2.73;;;2.53;;
73733;SDS011;62039;50.000;9.064;2022-07-23T00:19:47;2.77;;;2.30;;
73733;SDS011;62039;50.000;9.064;2022-07-23T00:22:14;2.67;;;2.47;;
73733;SDS011;62039;50.000;9.064;2022-07-23T00:24:40;3.37;;;2.67;;
73733;SDS011;62039;50.000;9.064;2022-07-23T00:27:07;3.03;;;2.80;;
73733;SDS011;62039;50.000;9.064;2022-07-23T00:29:33;2.87;;;2.67;;
73733;SDS011;62039;50.000;9.064;2022-07-23T00:32:01;2.93;;;2.63;;
73733;SDS011;62039;50.000;9.064;2022-07-23T00:34:28;3.37;;;3.07;;
73733;SDS011;62039;50.000;9.064;2022-07-23T00:36:55;2.70;;;2.50;;
73733;SDS011;62039;50.000;9.064;2022-07-23T00:39:21;2.43;;;2.33;;
73733;SDS011;62039;50.000;9.064;2022-07-23T00:41:48;2.73;;;2.50;;
73733;SDS011;62039;50.000;9.064;2022-07-23T00:44:15;3.10;;;2.90;;
73733;SDS011;62039;50.000;9.064;2022-07-23T00:46:46;3.20;;;2.90;;
73733;SDS011;62039;50.000;9.064;2022-07-23T00:49:15;3.30;;;3.00;;
73733;SDS011;62039;50.000;9.064;2022-07-23T00:51:41;2.90;;;2.70;;
73733;SDS011;62039;50.000;9.064;2022-07-23T00:54:09;2.73;;;2.47;;
73733;SDS011;62039;50.000;9.064;2022-07-23T00:56:36;2.77;;;2.57;;
73733;SDS011;62039;50.000;9.064;2022-07-23T00:59:03;3.83;;;3.07;;
73733;SDS011;62039;50.000;9.064;2022-07-23T01:01:29;2.60;;;2.40;;
73733;SDS011;62039;50.000;9.064;2022-07-23T01:03:56;2.73;;;2.40;;
73733;SDS011;62039;50.000;9.064;2022-07-23T01:06:24;2.80;;;2.23;;
73733;SDS011;62039;50.000;9.064;2022-07-23T01:08:51;3.03;;;2.70;;
73733;SDS011;62039;50.000;9.064;2022-07-23T01:11:18;2.67;;;2.47;;
73733;SDS011;62039;50.000;9.064;2022-07-23T01:13:46;4.20;;;2.73;;
73733;SDS011;62039;50.000;9.064;2022-07-23T01:16:13;2.90;;;2.60;;
73733;SDS011;62039;50.000;9.064;2022-07-23T01:18:40;4.13;;;3.03;;
73733;SDS011;62039;50.000;9.064;2022-07-23T01:21:06;2.40;;;2.20;;
73733;SDS011;62039;50.000;9.064;2022-07-23T01:23:37;2.50;;;2.30;;
73733;SDS011;62039;50.000;9.064;2022-07-23T01:26:04;2.90;;;2.70;;
73733;SDS011;62039;50.000;9.064;2022-07-23T01:28:30;3.00;;;2.80;;
73733;SDS011;62039;50.000;9.064;2022-07-23T01:30:57;3.27;;;2.37;;
73733;SDS011;62039;50.000;9.064;2022-07-23T01:33:24;2.93;;;2.57;;
73733;SDS011;62039;50.000;9.064;2022-07-23T01:35:50;3.00;;;2.80;;
73733;SDS011;62039;50.000;9.064;2022-07-23T01:38:17;2.97;;;2.73;;
73733;SDS011;62039;50.000;9.064;2022-07-23T01:40:45;2.80;;;2.60;;
73733;SDS011;62039;50.000;9.064;2022-07-23T01:43:16;2.80;;;2.60;;
73733;SDS011;62039;50.000;9.064;2022-07-23T01:45:44;2.77;;;2.57;;
73733;SDS011;62039;50.000;9.064;2022-07-23T01:48:10;3.00;;;2.80;;
73733;SDS011;62039;50.000;9.064;2022-07-23T01:50:37;4.60;;;2.60;;
73733;SDS011;62039;50.000;9.064;2022-07-23T01:53:03;2.70;;;2.50;;
73733;SDS011;62039;50.000;9.064;2022-07-23T01:55:30;3.47;;;2.70;;
73733;SDS011;62039;50.000;9.064;2022-07-23T01:57:58;2.67;;;2.47;;
73733;SDS011;62039;50.000;9.064;2022-07-23T02:00:24;2.53;;;2.33;;
73733;SDS011;62039;50.000;9.064;2022-07-23T02:02:51;2.83;;;2.57;;
73733;SDS011;62039;50.000;9.064;2022-07-23T02:05:18;2.60;;;2.40;;
73733;SDS011;62039;50.000;9.064;2022-07-23T02:07:44;3.03;;;2.37;;
73733;SDS011;62039;50.000;9.064;2022-07-23T02:10:11;2.80;;;2.60;;
73733;SDS011;62039;50.000;9.064;2022-07-23T02:12:37;2.87;;;2.67;;
73733;SDS011;62039;50.000;9.064;2022-07-23T02:15:06;2.90;;;2.70;;
73733;SDS011;62039;50.000;9.064;2022-07-23T02:17:35;2.80;;;2.60;;
73733;SDS011;62039;50.000;9.064;2022-07-23T02:20:03;3.03;;;2.83;;
73733;SDS011;62039;50.000;9.064;2022-07-23T02:22:30;2.60;;;2.40;;
73733;SDS011;62039;50.000;9.064;2022-07-23T02:24:56;3.03;;;2.70;;
73733;SDS011;62039;50.000;9.064;2022-07-23T02:27:23;2.60;;;2.40;;
73733;SDS011;62039;50.000;9.064;2022-07-23T02:29:50;3.07;;;2.80;;
73733;SDS011;62039;50.000;9.064;2022-07-23T02:32:18;3.00;;;2.73;;
73733;SDS011;62039;50.000;9.064;2022-07-23T02:34:44;2.67;;;2.47;;
73733;SDS011;62039;50.000;9.064;2022-07-23T02:37:11;3.03;;;2.80;;
73733;SDS011;62039;50.000;9.064;2022-07-23T02:39:37;2.90;;;2.50;;
73733;SDS011;62039;50.000;9.064;2022-07-23T02:42:04;3.07;;;2.60;;
73733;SDS011;62039;50.000;9.064;2022-07-23T02:44:31;3.93;;;3.30;;
73733;SDS011;62039;50.000;9.064;2022-07-23T02:46:57;3.73;;;3.30;;
73733;SDS011;62039;50.000;9.064;2022-07-23T02:49:25;3.20;;;2.90;;
73733;SDS011;62039;50.000;9.064;2022-07-23T02:51:52;3.73;;;3.33;;
73733;SDS011;62039;50.000;9.064;2022-07-23T02:54:19;3.03;;;2.83;;
73733;SDS011;62039;50.000;9.064;2022-07-23T02:56:45;2.90;;;2.70;;
73733;SDS011;62039;50.000;9.064;2022-07-23T02:59:12;3.13;;;2.83;;
73733;SDS011;62039;50.000;9.064;2022-07-23T03:01:38;3.00;;;2.77;;
73733;SDS011;62039;50.000;9.064;2022-07-23T03:04:05;2.80;;;2.60;;
73733;SDS011;62039;50.000;9.064;2022-07-23T03:06:33;2.77;;;2.57;;
73733;SDS011;62039;50.000;9.064;2022-07-23T03:09:00;3.17;;;2.87;;
73733;SDS011;62039;50.000;9.064;2022-07-23T03:11:27;2.57;;;2.37;;
73733;SDS011;62039;50.000;9.064;2022-07-23T03:13:53;3.30;;;2.80;;
73733;SDS011;62039;50.000;9.064;2022-07-23T03:16:20;3.80;;;3.00;;
73733;SDS011;62039;50.000;9.064;2022-07-23T03:18:47;3.07;;;2.77;;
73733;SDS011;62039;50.000;9.064;2022-07-23T03:21:14;2.97;;;2.67;;
73733;SDS011;62039;50.000;9.064;2022-07-23T03:23:42;3.23;;;2.83;;
73733;SDS011;62039;50.000;9.064;2022-07-23T03:26:08;2.70;;;2.50;;
73733;SDS011;62039;50.000;9.064;2022-07-23T03:28:35;3.23;;;2.93;;
73733;SDS011;62039;50.000;9.064;2022-07-23T03:31:01;3.50;;;3.20;;
73733;SDS011;62039;50.000;9.064;2022-07-23T03:33:28;3.37;;;3.07;;
73733;SDS011;62039;50.000;9.064;2022-07-23T03:35:54;3.20;;;2.90;;
73733;SDS011;62039;50.000;9.064;2022-07-23T03:38:21;3.80;;;3.20;;
73733;SDS011;62039;50.000;9.064;2022-07-23T03:40:50;3.20;;;2.90;;
73733;SDS011;62039;50.000;9.064;2022-07-23T03:43:17;3.40;;;3.10;;
73733;SDS011;62039;50.000;9.064;2022-07-23T03:45:43;3.40;;;3.10;;
73733;SDS011;62039;50.000;9.064;2022-07-23T03:48:10;3.37;;;3.07;;
73733;SDS011;62039;50.000;9.064;2022-07-23T03:50:37;3.73;;;2.93;;
73733;SDS011;62039;50.000;9.064;2022-07-23T03:53:03;4.67;;;3.30;;
73733;SDS011;62039;50.000;9.064;2022-07-23T03:55:30;4.10;;;2.87;;
73733;SDS011;62039;50.000;9.064;2022-07-23T03:57:58;3.10;;;2.80;;
73733;SDS011;62039;50.000;9.064;2022-07-23T04:00:25;3.67;;;3.37;;
73733;SDS011;62039;50.000;9.064;2022-07-23T04:02:51;3.67;;;3.37;;
73733;SDS011;62039;50.000;9.064;2022-07-23T04:05:18;5.23;;;3.70;;
73733;SDS011;62039;50.000;9.064;2022-07-23T04:07:44;3.77;;;3.43;;
73733;SDS011;62039;50.000;9.064;2022-07-23T04:10:11;3.27;;;3.07;;
73733;SDS011;62039;50.000;9.064;2022-07-23T04:12:38;3.93;;;3.53;;
73733;SDS011;62039;50.000;9.064;2022-07-23T04:15:06;3.73;;;3.13;;
73733;SDS011;62039;50.000;9.064;2022-07-23T04:17:34;3.57;;;3.27;;
73733;SDS011;62039;50.000;9.064;2022-07-23T04:20:01;3.87;;;3.57;;
73733;SDS011;62039;50.000;9.064;2022-07-23T04:22:27;3.80;;;3.40;;
73733;SDS011;62039;50.000;9.064;2022-07-23T04:24:54;3.20;;;2.90;;
73733;SDS011;62039;50.000;9.064;2022-07-23T04:27:20;3.47;;;3.17;;
73733;SDS011;62039;50.000;9.064;2022-07-23T04:29:47;3.00;;;2.80;;
73733;SDS011;62039;50.000;9.064;2022-07-23T04:32:15;3.43;;;3.13;;
73733;SDS011;62039;50.000;9.064;2022-07-23T04:34:41;4.50;;;3.17;;
73733;SDS011;62039;50.000;9.064;2022-07-23T04:37:08;3.60;;;3.30;;
73733;SDS011;62039;50.000;9.064;2022-07-23T04:39:35;3.73;;;3.43;;
73733;SDS011;62039;50.000;9.064;2022-07-23T04:42:01;3.10;;;2.80;;
73733;SDS011;62039;50.000;9.064;2022-07-23T04:44:28;3.33;;;3.03;;
73733;SDS011;62039;50.000;9.064;2022-07-23T04:46:54;3.50;;;3.20;;
73733;SDS011;62039;50.000;9.064;2022-07-23T04:49:22;3.77;;;3.40;;
73733;SDS011;62039;50.000;9.064;2022-07-23T04:51:49;3.37;;;3.07;;
73733;SDS011;62039;50.000;9.064;2022-07-23T04:54:16;3.30;;;3.00;;
73733;SDS011;62039;50.000;9.064;2022-07-23T04:56:42;5.40;;;3.90;;
73733;SDS011;62039;50.000;9.064;2022-07-23T04:59:09;4.00;;;3.60;;
73733;SDS011;62039;50.000;9.064;2022-07-23T05:01:35;4.30;;;3.90;;
73733;SDS011;62039;50.000;9.064;2022-07-23T05:04:02;4.00;;;3.50;;
73733;SDS011;62039;50.000;9.064;2022-07-23T05:06:30;4.00;;;3.70;;
73733;SDS011;62039;50.000;9.064;2022-07-23T05:08:56;3.20;;;2.87;;
73733;SDS011;62039;50.000;9.064;2022-07-23T05:11:23;3.70;;;3.20;;
73733;SDS011;62039;50.000;9.064;2022-07-23T05:13:52;3.73;;;3.37;;
73733;SDS011;62039;50.000;9.064;2022-07-23T05:16:19;3.80;;;3.50;;
73733;SDS011;62039;50.000;9.064;2022-07-23T05:18:46;4.30;;;3.90;;
73733;SDS011;62039;50.000;9.064;2022-07-23T05:21:12;3.80;;;3.50;;
73733;SDS011;62039;50.000;9.064;2022-07-23T05:23:40;3.77;;;3.40;;
73733;SDS011;62039;50.000;9.064;2022-07-23T05:26:07;3.73;;;3.43;;
73733;SDS011;62039;50.000;9.064;2022-07-23T05:28:33;4.07;;;3.70;;
73733;SDS011;62039;50.000;9.064;2022-07-23T05:31:00;4.17;;;3.80;;
73733;SDS011;62039;50.000;9.064;2022-07-23T05:33:26;4.20;;;3.80;;
73733;SDS011;62039;50.000;9.064;2022-07-23T05:35:53;5.27;;;4.80;;
73733;SDS011;62039;50.000;9.064;2022-07-23T05:38:20;5.03;;;4.23;;
73733;SDS011;62039;50.000;9.064;2022-07-23T05:40:48;4.17;;;3.77;;
73733;SDS011;62039;50.000;9.064;2022-07-23T05:43:14;3.77;;;3.47;;
73733;SDS011;62039;50.000;9.064;2022-07-23T05:45:41;3.97;;;3.53;;
73733;SDS011;62039;50.000;9.064;2022-07-23T05:48:07;4.10;;;3.70;;
73733;SDS011;62039;50.000;9.064;2022-07-23T05:50:34;4.13;;;3.73;;
73733;SDS011;62039;50.000;9.064;2022-07-23T05:53:00;4.50;;;4.10;;
73733;SDS011;62039;50.000;9.064;2022-07-23T05:55:27;5.17;;;4.53;;
73733;SDS011;62039;50.000;9.064;2022-07-23T05:57:55;5.10;;;4.53;;
73733;SDS011;62039;50.000;9.064;2022-07-23T06:00:23;4.70;;;4.30;;
73733;SDS011;62039;50.000;9.064;2022-07-23T06:02:50;4.63;;;4.23;;
73733;SDS011;62039;50.000;9.064;2022-07-23T06:05:21;4.40;;;4.00;;
73733;SDS011;62039;50.000;9.064;2022-07-23T06:07:48;4.37;;;3.97;;
73733;SDS011;62039;50.000;9.064;2022-07-23T06:10:14;5.23;;;4.60;;
73733;SDS011;62039;50.000;9.064;2022-07-23T06:12:41;4.13;;;3.80;;
73733;SDS011;62039;50.000;9.064;2022-07-23T06:15:10;4.30;;;3.90;;
73733;SDS011;62039;50.000;9.064;2022-07-23T06:17:37;4.50;;;4.10;;
73733;SDS011;62039;50.000;9.064;2022-07-23T06:20:04;4.27;;;3.83;;
73733;SDS011;62039;50.000;9.064;2022-07-23T06:22:31;5.17;;;4.53;;
73733;SDS011;62039;50.000;9.064;2022-07-23T06:24:57;5.00;;;4.60;;
73733;SDS011;62039;50.000;9.064;2022-07-23T06:27:24;4.17;;;3.87;;
73733;SDS011;62039;50.000;9.064;2022-07-23T06:29:52;4.47;;;4.07;;
73733;SDS011;62039;50.000;9.064;2022-07-23T06:32:20;4.20;;;3.57;;
73733;SDS011;62039;50.000;9.064;2022-07-23T06:34:46;3.80;;;3.50;;
73733;SDS011;62039;50.000;9.064;2022-07-23T06:37:14;4.10;;;3.70;;
73733;SDS011;62039;50.000;9.064;2022-07-23T06:39:41;3.50;;;3.20;;
73733;SDS011;62039;50.000;9.064;2022-07-23T06:42:08;3.43;;;3.13;;
73733;SDS011;62039;50.000;9.064;2022-07-23T06:44:35;3.50;;;3.20;;
73733;SDS011;62039;50.000;9.064;2022-07-23T06:47:02;3.80;;;3.50;;
73733;SDS011;62039;50.000;9.064;2022-07-23T06:49:30;3.70;;;3.40;;
73733;SDS011;62039;50.000;9.064;2022-07-23T06:51:56;7.17;;;4.50;;
73733;SDS011;62039;50.000;9.064;2022-07-23T06:54:23;4.37;;;3.97;;
73733;SDS011;62039;50.000;9.064;2022-07-23T06:56:49;4.03;;;3.73;;
73733;SDS011;62039;50.000;9.064;2022-07-23T06:59:16;4.30;;;3.90;;
73733;SDS011;62039;50.000;9.064;2022-07-23T07:01:43;3.53;;;3.23;;
73733;SDS011;62039;50.000;9.064;2022-07-23T07:04:09;3.77;;;3.47;;
73733;SDS011;62039;50.000;9.064;2022-07-23T07:06:37;4.10;;;3.80;;
73733;SDS011;62039;50.000;9.064;2022-07-23T07:09:04;4.30;;;4.00;;
73733;SDS011;62039;50.000;9.064;2022-07-23T07:11:31;3.47;;;3.17;;
73733;SDS011;62039;50.000;9.064;2022-07-23T07:13:57;3.90;;;3.47;;
73733;SDS011;62039;50.000;9.064;2022-07-23T07:16:24;4.20;;;3.80;;
73733;SDS011;62039;50.000;9.064;2022-07-23T07:18:57;4.47;;;4.07;;
73733;SDS011;62039;50.000;9.064;2022-07-23T07:21:25;3.63;;;3.33;;
73733;SDS011;62039;50.000;9.064;2022-07-23T07:23:52;3.83;;;3.53;;
73733;SDS011;62039;50.000;9.064;2022-07-23T07:26:19;4.23;;;3.83;;
73733;SDS011;62039;50.000;9.064;2022-07-23T07:28:45;4.83;;;4.33;;
73733;SDS011;62039;50.000;9.064;2022-07-23T07:31:12;4.63;;;4.23;;
73733;SDS011;62039;50.000;9.064;2022-07-23T07:33:39;4.87;;;4.17;;
73733;SDS011;62039;50.000;9.064;2022-07-23T07:36:05;4.17;;;3.87;;
73733;SDS011;62039;50.000;9.064;2022-07-23T07:38:32;3.67;;;3.37;;
73733;SDS011;62039;50.000;9.064;2022-07-23T07:41:00;3.57;;;3.03;;
73733;SDS011;62039;50.000;9.064;2022-07-23T07:43:27;3.20;;;3.00;;
73733;SDS011;62039;50.000;9.064;2022-07-23T07:45:53;3.07;;;2.87;;
73733;SDS011;62039;50.000;9.064;2022-07-23T07:48:20;3.57;;;3.20;;
73733;SDS011;62039;50.000;9.064;2022-07-23T07:50:47;3.57;;;3.27;;
73733;SDS011;62039;50.000;9.064;2022-07-23T07:53:14;2.93;;;2.73;;
73733;SDS011;62039;50.000;9.064;2022-07-23T07:55:41;4.60;;;4.20;;
73733;SDS011;62039;50.000;9.064;2022-07-23T07:58:17;3.73;;;3.43;;
73733;SDS011;62039;50.000;9.064;2022-07-23T08:00:44;4.00;;;3.70;;
73733;SDS011;62039;50.000;9.064;2022-07-23T08:03:11;3.27;;;2.97;;
73733;SDS011;62039;50.000;9.064;2022-07-23T08:05:37;3.40;;;3.10;;
73733;SDS011;62039;50.000;9.064;2022-07-23T08:08:04;3.67;;;3.37;;
73733;SDS011;62039;50.000;9.064;2022-07-23T08:10:31;3.50;;;3.20;;
73733;SDS011;62039;50.000;9.064;2022-07-23T08:12:58;3.80;;;3.50;;
73733;SDS011;62039;50.000;9.064;2022-07-23T08:15:26;3.40;;;3.10;;
73733;SDS011;62039;50.000;9.064;2022-07-23T08:17:54;3.70;;;3.40;;
73733;SDS011;62039;50.000;9.064;2022-07-23T08:20:21;3.17;;;2.87;;
73733;SDS011;62039;50.000;9.064;2022-07-23T08:22:49;3.33;;;3.00;;
73733;SDS011;62039;50.000;9.064;2022-07-23T08:25:19;4.03;;;2.90;;
73733;SDS011;62039;50.000;9.064;2022-07-23T08:27:48;2.40;;;2.20;;
73733;SDS011;62039;50.000;9.064;2022-07-23T08:30:14;2.77;;;2.57;;
73733;SDS011;62039;50.000;9.064;2022-07-23T08:32:52;3.50;;;3.20;;
73733;SDS011;62039;50.000;9.064;2022-07-23T08:35:25;4.30;;;3.07;;
73733;SDS011;62039;50.000;9.064;2022-07-23T08:37:52;3.60;;;3.30;;
73733;SDS011;62039;50.000;9.064;2022-07-23T08:40:19;3.67;;;3.03;;
73733;SDS011;62039;50.000;9.064;2022-07-23T08:42:47;4.50;;;4.13;;
73733;SDS011;62039;50.000;9.064;2022-07-23T08:45:16;3.13;;;2.90;;
73733;SDS011;62039;50.000;9.064;2022-07-23T08:47:43;2.90;;;2.70;;
73733;SDS011;62039;50.000;9.064;2022-07-23T08:50:18;2.90;;;2.70;;
73733;SDS011;62039;50.000;9.064;2022-07-23T08:52:45;3.90;;;3.50;;
73733;SDS011;62039;50.000;9.064;2022-07-23T08:55:12;2.97;;;2.67;;
73733;SDS011;62039;50.000;9.064;2022-07-23T08:57:39;3.17;;;2.90;;
73733;SDS011;62039;50.000;9.064;2022-07-23T09:00:06;3.43;;;3.13;;
73733;SDS011;62039;50.000;9.064;2022-07-23T09:02:38;3.40;;;3.10;;
73733;SDS011;62039;50.000;9.064;2022-07-23T09:05:06;3.07;;;2.87;;
73733;SDS011;62039;50.000;9.064;2022-07-23T09:07:36;3.00;;;2.80;;
73733;SDS011;62039;50.000;9.064;2022-07-23T09:10:07;3.27;;;3.07;;
73733;SDS011;62039;50.000;9.064;2022-07-23T09:12:35;3.07;;;2.77;;
73733;SDS011;62039;50.000;9.064;2022-07-23T09:15:03;2.97;;;2.77;;
73733;SDS011;62039;50.000;9.064;2022-07-23T09:17:36;3.30;;;3.00;;
73733;SDS011;62039;50.000;9.064;2022-07-23T09:20:07;2.77;;;2.57;;
73733;SDS011;62039;50.000;9.064;2022-07-23T09:22:37;3.27;;;2.97;;
73733;SDS011;62039;50.000;9.064;2022-07-23T09:25:09;3.33;;;3.03;;
73733;SDS011;62039;50.000;9.064;2022-07-23T09:27:47;3.07;;;2.87;;
73733;SDS011;62039;50.000;9.064;2022-07-23T09:30:21;2.83;;;2.63;;
73733;SDS011;62039;50.000;9.064;2022-07-23T09:33:05;3.00;;;2.80;;
73733;SDS011;62039;50.000;9.064;2022-07-23T09:35:46;2.87;;;2.63;;
73733;SDS011;62039;50.000;9.064;2022-07-23T09:38:15;3.10;;;2.80;;
73733;SDS011;62039;50.000;9.064;2022-07-23T09:40:43;2.60;;;2.40;;
73733;SDS011;62039;50.000;9.064;2022-07-23T09:43:10;2.53;;;2.37;;
73733;SDS011;62039;50.000;9.064;2022-07-23T09:45:37;3.03;;;2.73;;
73733;SDS011;62039;50.000;9.064;2022-07-23T09:48:11;3.40;;;2.70;;
73733;SDS011;62039;50.000;9.064;2022-07-23T09:50:38;2.87;;;2.67;;
73733;SDS011;62039;50.000;9.064;2022-07-23T09:53:05;3.20;;;2.90;;
73733;SDS011;62039;50.000;9.064;2022-07-23T09:55:34;3.17;;;2.90;;
73733;SDS011;62039;50.000;9.064;2022-07-23T09:58:02;3.27;;;2.97;;
73733;SDS011;62039;50.000;9.064;2022-07-23T10:00:29;3.83;;;3.53;;
73733;SDS011;62039;50.000;9.064;2022-07-23T10:02:57;3.20;;;3.00;;
73733;SDS011;62039;50.000;9.064;2022-07-23T10:05:24;3.03;;;2.83;;
73733;SDS011;62039;50.000;9.064;2022-07-23T10:07:51;3.30;;;3.10;;
73733;SDS011;62039;50.000;9.064;2022-07-23T10:10:18;3.57;;;3.27;;
73733;SDS011;62039;50.000;9.064;2022-07-23T10:12:48;3.23;;;2.93;;
73733;SDS011;62039;50.000;9.064;2022-07-23T10:15:15;2.87;;;2.43;;
73733;SDS011;62039;50.000;9.064;2022-07-23T10:17:42;2.67;;;2.47;;
73733;SDS011;62039;50.000;9.064;2022-07-23T10:20:09;2.77;;;2.57;;
73733;SDS011;62039;50.000;9.064;2022-07-23T10:22:37;2.73;;;2.53;;
73733;SDS011;62039;50.000;9.064;2022-07-23T10:25:10;3.00;;;2.80;;
73733;SDS011;62039;50.000;9.064;2022-07-23T10:27:51;5.13;;;2.77;;
73733;SDS011;62039;50.000;9.064;2022-07-23T10:30:31;3.07;;;2.87;;
73733;SDS011;62039;50.000;9.064;2022-07-23T10:33:10;3.23;;;2.93;;
73733;SDS011;62039;50.000;9.064;2022-07-23T10:35:44;3.93;;;2.53;;
73733;SDS011;62039;50.000;9.064;2022-07-23T10:38:18;2.80;;;2.60;;
73733;SDS011;62039;50.000;9.064;2022-07-23T10:40:54;4.43;;;3.20;;
73733;SDS011;62039;50.000;9.064;2022-07-23T10:43:24;3.10;;;2.80;;
73733;SDS011;62039;50.000;9.064;2022-07-23T10:45:51;2.78;;;2.58;;
73733;SDS011;62039;50.000;9.064;2022-07-23T10:48:21;2.95;;;2.70;;
73733;SDS011;62039;50.000;9.064;2022-07-23T10:51:08;2.88;;;2.67;;
73733;SDS011;62039;50.000;9.064;2022-07-23T10:53:55;2.97;;;2.78;;
73733;SDS011;62039;50.000;9.064;2022-07-23T10:59:32;2.90;;;2.70;;
73733;SDS011;62039;50.000;9.064;2022-07-23T11:02:36;2.97;;;2.77;;
73733;SDS011;62039;50.000;9.064;2022-07-23T11:05:04;2.90;;;2.70;;
73733;SDS011;62039;50.000;9.064;2022-07-23T11:07:32;3.15;;;2.95;;
73733;SDS011;62039;50.000;9.064;2022-07-23T11:09:59;3.13;;;2.92;;
73733;SDS011;62039;50.000;9.064;2022-07-23T11:12:35;3.33;;;2.90;;
73733;SDS011;62039;50.000;9.064;2022-07-23T11:15:04;2.85;;;2.65;;
73733;SDS011;62039;50.000;9.064;2022-07-23T11:17:34;3.15;;;2.95;;
73733;SDS011;62039;50.000;9.064;2022-07-23T11:20:20;3.42;;;3.13;;
73733;SDS011;62039;50.000;9.064;2022-07-23T11:22:51;3.20;;;3.00;;
73733;SDS011;62039;50.000;9.064;2022-07-23T11:25:31;3.20;;;2.72;;
73733;SDS011;62039;50.000;9.064;2022-07-23T11:28:10;3.03;;;2.72;;
73733;SDS011;62039;50.000;9.064;2022-07-23T11:30:42;3.00;;;2.80;;
73733;SDS011;62039;50.000;9.064;2022-07-23T11:33:17;3.00;;;2.80;;
73733;SDS011;62039;50.000;9.064;2022-07-23T11:35:48;2.50;;;2.30;;
73733;SDS011;62039;50.000;9.064;2022-07-23T11:38:25;3.22;;;2.70;;
73733;SDS011;62039;50.000;9.064;2022-07-23T11:40:52;2.72;;;2.53;;
73733;SDS011;62039;50.000;9.064;2022-07-23T11:43:20;2.75;;;2.55;;
73733;SDS011;62039;50.000;9.064;2022-07-23T11:45:51;3.92;;;2.90;;
73733;SDS011;62039;50.000;9.064;2022-07-23T11:48:20;3.08;;;2.88;;
73733;SDS011;62039;50.000;9.064;2022-07-23T11:50:48;3.35;;;3.05;;
73733;SDS011;62039;50.000;9.064;2022-07-23T11:53:20;2.97;;;2.78;;
73733;SDS011;62039;50.000;9.064;2022-07-23T11:55:48;2.70;;;2.50;;
73733;SDS011;62039;50.000;9.064;2022-07-23T11:58:14;2.78;;;2.58;;
73733;SDS011;62039;50.000;9.064;2022-07-23T12:00:41;2.67;;;2.47;;
73733;SDS011;62039;50.000;9.064;2022-07-23T12:03:09;2.63;;;2.42;;
73733;SDS011;62039;50.000;9.064;2022-07-23T12:05:37;2.65;;;2.45;;
73733;SDS011;62039;50.000;9.064;2022-07-23T12:08:05;2.70;;;2.50;;
73733;SDS011;62039;50.000;9.064;2022-07-23T12:10:34;3.28;;;2.97;;
73733;SDS011;62039;50.000;9.064;2022-07-23T12:13:03;2.70;;;2.50;;
73733;SDS011;62039;50.000;9.064;2022-07-23T12:15:31;3.13;;;2.90;;
73733;SDS011;62039;50.000;9.064;2022-07-23T12:18:00;2.33;;;2.20;;
73733;SDS011;62039;50.000;9.064;2022-07-23T12:20:29;2.58;;;2.38;;
73733;SDS011;62039;50.000;9.064;2022-07-23T12:22:58;2.20;;;2.10;;
73733;SDS011;62039;50.000;9.064;2022-07-23T12:25:27;2.78;;;2.58;;
73733;SDS011;62039;50.000;9.064;2022-07-23T12:27:58;2.80;;;2.60;;
73733;SDS011;62039;50.000;9.064;2022-07-23T12:30:27;2.65;;;2.45;;
73733;SDS011;62039;50.000;9.064;2022-07-23T12:33:02;2.70;;;2.50;;
73733;SDS011;62039;50.000;9.064;2022-07-23T12:35:32;2.75;;;2.55;;
73733;SDS011;62039;50.000;9.064;2022-07-23T12:38:00;2.10;;;2.00;;
73733;SDS011;62039;50.000;9.064;2022-07-23T12:40:30;2.47;;;2.28;;
73733;SDS011;62039;50.000;9.064;2022-07-23T12:43:00;2.47;;;2.28;;
73733;SDS011;62039;50.000;9.064;2022-07-23T12:45:27;2.22;;;2.13;;
73733;SDS011;62039;50.000;9.064;2022-07-23T12:48:08;2.13;;;2.03;;
73733;SDS011;62039;50.000;9.064;2022-07-23T12:50:43;2.58;;;2.38;;
73733;SDS011;62039;50.000;9.064;2022-07-23T12:53:15;3.03;;;2.83;;
73733;SDS011;62039;50.000;9.064;2022-07-23T12:55:49;2.80;;;2.60;;
73733;SDS011;62039;50.000;9.064;2022-07-23T12:58:40;2.65;;;2.35;;
73733;SDS011;62039;50.000;9.064;2022-07-23T13:01:23;2.85;;;2.65;;
73733;SDS011;62039;50.000;9.064;2022-07-23T13:03:57;3.13;;;2.72;;
73733;SDS011;62039;50.000;9.064;2022-07-23T13:06:26;2.90;;;2.70;;
73733;SDS011;62039;50.000;9.064;2022-07-23T13:08:54;2.72;;;2.50;;
73733;SDS011;62039;50.000;9.064;2022-07-23T13:11:22;2.50;;;2.30;;
73733;SDS011;62039;50.000;9.064;2022-07-23T13:13:49;3.45;;;3.15;;
73733;SDS011;62039;50.000;9.064;2022-07-23T13:16:15;2.67;;;2.47;;
73733;SDS011;62039;50.000;9.064;2022-07-23T13:18:42;3.13;;;2.50;;
73733;SDS011;62039;50.000;9.064;2022-07-23T13:21:09;2.75;;;2.55;;
73733;SDS011;62039;50.000;9.064;2022-07-23T13:23:37;2.60;;;2.40;;
73733;SDS011;62039;50.000;9.064;2022-07-23T13:26:03;2.20;;;2.10;;
73733;SDS011;62039;50.000;9.064;2022-07-23T13:28:30;3.67;;;2.50;;
73733;SDS011;62039;50.000;9.064;2022-07-23T13:30:56;4.78;;;4.28;;
73733;SDS011;62039;50.000;9.064;2022-07-23T13:33:24;4.80;;;4.30;;
73733;SDS011;62039;50.000;9.064;2022-07-23T13:35:52;3.20;;;2.90;;
73733;SDS011;62039;50.000;9.064;2022-07-23T13:38:21;2.75;;;2.53;;
73733;SDS011;62039;50.000;9.064;2022-07-23T13:40:50;3.00;;;2.70;;
73733;SDS011;62039;50.000;9.064;2022-07-23T13:43:18;2.85;;;2.65;;
73733;SDS011;62039;50.000;9.064;2022-07-23T13:45:48;2.70;;;2.50;;
73733;SDS011;62039;50.000;9.064;2022-07-23T13:48:16;3.15;;;2.20;;
73733;SDS011;62039;50.000;9.064;2022-07-23T13:50:43;3.15;;;2.88;;
73733;SDS011;62039;50.000;9.064;2022-07-23T13:53:10;3.17;;;2.80;;
73733;SDS011;62039;50.000;9.064;2022-07-23T13:55:38;3.30;;;3.00;;
73733;SDS011;62039;50.000;9.064;2022-07-23T13:58:15;3.60;;;3.30;;
73733;SDS011;62039;50.000;9.064;2022-07-23T14:00:43;2.83;;;2.58;;
73733;SDS011;62039;50.000;9.064;2022-07-23T14:03:18;2.65;;;2.45;;
73733;SDS011;62039;50.000;9.064;2022-07-23T14:05:47;2.47;;;2.28;;
73733;SDS011;62039;50.000;9.064;2022-07-23T14:08:15;3.45;;;2.50;;
73733;SDS011;62039;50.000;9.064;2022-07-23T14:10:42;3.15;;;2.72;;
73733;SDS011;62039;50.000;9.064;2022-07-23T14:13:08;2.60;;;2.40;;
73733;SDS011;62039;50.000;9.064;2022-07-23T14:15:37;2.75;;;2.55;;
73733;SDS011;62039;50.000;9.064;2022-07-23T14:18:03;2.67;;;2.47;;
73733;SDS011;62039;50.000;9.064;2022-07-23T14:20:30;3.15;;;2.95;;
73733;SDS011;62039;50.000;9.064;2022-07-23T14:22:57;2.78;;;2.58;;
73733;SDS011;62039;50.000;9.064;2022-07-23T14:25:26;2.60;;;2.40;;
73733;SDS011;62039;50.000;9.064;2022-07-23T14:27:54;2.83;;;2.63;;
73733;SDS011;62039;50.000;9.064;2022-07-23T14:30:21;2.70;;;2.50;;
73733;SDS011;62039;50.000;9.064;2022-07-23T14:32:50;2.50;;;2.30;;
73733;SDS011;62039;50.000;9.064;2022-07-23T14:35:17;3.03;;;2.80;;
73733;SDS011;62039;50.000;9.064;2022-07-23T14:37:45;2.97;;;2.78;;
73733;SDS011;62039;50.000;9.064;2022-07-23T14:40:12;3.10;;;2.78;;
73733;SDS011;62039;50.000;9.064;2022-07-23T14:42:38;2.72;;;2.53;;
73733;SDS011;62039;50.000;9.064;2022-07-23T14:45:05;2.65;;;2.45;;
73733;SDS011;62039;50.000;9.064;2022-07-23T14:47:36;2.90;;;2.70;;
73733;SDS011;62039;50.000;9.064;2022-07-23T14:50:04;3.28;;;2.92;;
73733;SDS011;62039;50.000;9.064;2022-07-23T14:52:32;3.03;;;2.83;;
73733;SDS011;62039;50.000;9.064;2022-07-23T14:54:58;2.80;;;2.60;;
73733;SDS011;62039;50.000;9.064;2022-07-23T14:57:25;3.05;;;2.72;;